createdAt,value
2022-11-29T00:00:07.523Z,9.277720
2022-11-29T00:01:07.659Z,9.277767
2022-11-29T00:02:07.349Z,9.277640
2022-11-29T00:03:07.655Z,9.277553
2022-11-29T00:04:07.162Z,9.277021
2022-11-29T00:05:07.147Z,9.277213
2022-11-29T00:06:07.430Z,9.277059
2022-11-29T00:07:07.221Z,9.276597
2022-11-29T00:08:07.105Z,9.277466
2022-11-29T00:09:07.260Z,9.277684
2022-11-29T00:10:07.071Z,9.277872
2022-11-29T00:11:07.336Z,9.278319
2022-11-29T00:12:07.369Z,9.277836
2022-11-29T00:13:07.130Z,9.278352
2022-11-29T00:14:07.017Z,9.278404
2022-11-29T00:15:07.267Z,9.278346
2022-11-29T00:16:07.477Z,9.278361
2022-11-29T00:17:07.753Z,9.278264
2022-11-29T00:18:07.154Z,9.278338
2022-11-29T00:19:07.058Z,9.278181
2022-11-29T00:20:07.258Z,9.278252
2022-11-29T00:21:06.948Z,9.278321
2022-11-29T00:22:06.854Z,9.278281
2022-11-29T00:23:06.856Z,9.278328
2022-11-29T00:24:06.828Z,9.278401
2022-11-29T00:25:06.817Z,9.278464
2022-11-29T00:26:07.087Z,9.278444
2022-11-29T00:27:07.263Z,9.278484
2022-11-29T00:28:07.121Z,9.278306
2022-11-29T00:29:06.762Z,9.278378
2022-11-29T00:30:06.825Z,9.278366
2022-11-29T00:31:07.021Z,9.278219
2022-11-29T00:32:06.692Z,9.278441
2022-11-29T00:33:06.957Z,9.278552
2022-11-29T00:34:06.653Z,9.278473
2022-11-29T00:35:09.637Z,9.278470
2022-11-29T00:36:07.695Z,9.278422
2022-11-29T00:37:06.819Z,9.278416
2022-11-29T00:38:06.585Z,9.278497
2022-11-29T00:39:07.680Z,9.278459
2022-11-29T00:40:06.568Z,9.278477
2022-11-29T00:41:06.815Z,9.278477
2022-11-29T00:42:06.525Z,9.278490
2022-11-29T00:43:06.754Z,9.278461
2022-11-29T00:44:06.486Z,9.278520
2022-11-29T00:45:06.647Z,9.278507
2022-11-29T00:46:06.558Z,9.278425
2022-11-29T00:47:06.636Z,9.278376
2022-11-29T00:48:06.418Z,9.278503
2022-11-29T00:49:06.658Z,9.278409
2022-11-29T00:50:06.382Z,9.278379
2022-11-29T00:51:06.397Z,9.278346
2022-11-29T00:52:06.348Z,9.278387
2022-11-29T00:53:06.410Z,9.278387
2022-11-29T00:54:06.324Z,9.278482
2022-11-29T00:55:06.577Z,9.278339
2022-11-29T00:56:06.433Z,9.278414
2022-11-29T00:57:06.840Z,9.278415
2022-11-29T00:58:06.251Z,9.278350
2022-11-29T00:59:06.434Z,9.278306
2022-11-29T01:00:06.421Z,9.278241
2022-11-29T01:01:06.459Z,9.278342
2022-11-29T01:02:06.390Z,9.278373
2022-11-29T01:03:06.462Z,9.278299
2022-11-29T01:04:06.521Z,9.278394
2022-11-29T01:05:06.202Z,9.278384
2022-11-29T01:06:06.420Z,9.278239
2022-11-29T01:07:06.355Z,9.278258
2022-11-29T01:08:06.468Z,9.278369
2022-11-29T01:09:06.309Z,9.278330
2022-11-29T01:10:06.226Z,9.278312
2022-11-29T01:11:06.347Z,9.278300
2022-11-29T01:12:06.326Z,9.278438
2022-11-29T01:13:06.131Z,9.278447
2022-11-29T01:14:05.981Z,9.278312
2022-11-29T01:15:06.377Z,9.278209
2022-11-29T01:16:06.060Z,9.278264
2022-11-29T01:17:06.581Z,9.278385
2022-11-29T01:18:05.907Z,9.278396
2022-11-29T01:19:06.152Z,9.278441
2022-11-29T01:20:06.041Z,9.278406
2022-11-29T01:21:05.945Z,9.278375
2022-11-29T01:22:05.985Z,9.278585
2022-11-29T01:23:06.010Z,9.278677
2022-11-29T01:24:05.960Z,9.278538
2022-11-29T01:25:05.793Z,9.278442
2022-11-29T01:26:07.089Z,9.278203
2022-11-29T01:27:05.761Z,9.278239
2022-11-29T01:28:05.848Z,9.278280
2022-11-29T01:29:05.912Z,9.278442
2022-11-29T01:30:06.007Z,9.278458
2022-11-29T01:31:05.750Z,9.278164
2022-11-29T01:32:05.928Z,9.278354
2022-11-29T01:33:05.658Z,9.278413
2022-11-29T01:34:05.665Z,9.278256
2022-11-29T01:35:05.617Z,9.278129
2022-11-29T01:36:05.947Z,9.278123
2022-11-29T01:37:05.585Z,9.278365
2022-11-29T01:38:05.579Z,9.278247
2022-11-29T01:39:05.688Z,9.278705
2022-11-29T01:40:05.651Z,9.278711
2022-11-29T01:41:05.950Z,9.278597
2022-11-29T01:42:05.704Z,9.278618
2022-11-29T01:43:06.036Z,9.278397
2022-11-29T01:44:05.470Z,9.278127
2022-11-29T01:45:05.738Z,9.278188
2022-11-29T01:46:05.510Z,9.278350
2022-11-29T01:47:05.775Z,9.278173
2022-11-29T01:48:05.901Z,9.278146
2022-11-29T01:49:05.372Z,9.278385
2022-11-29T01:50:05.572Z,9.278250
2022-11-29T01:51:05.622Z,9.278324
2022-11-29T01:52:05.321Z,9.278261
2022-11-29T01:53:05.303Z,9.278305
2022-11-29T01:54:05.557Z,9.278317
2022-11-29T01:55:05.352Z,9.278317
2022-11-29T01:56:05.532Z,9.278172
2022-11-29T01:57:05.526Z,9.278326
2022-11-29T01:58:05.425Z,9.278423
2022-11-29T01:59:05.602Z,9.278434
2022-11-29T02:00:05.332Z,9.278219
2022-11-29T02:01:05.455Z,9.278359
2022-11-29T02:02:05.596Z,9.278437
2022-11-29T02:03:05.272Z,9.278374
2022-11-29T02:04:05.126Z,9.278411
2022-11-29T02:05:05.392Z,9.278350
2022-11-29T02:06:05.374Z,9.278282
2022-11-29T02:07:05.324Z,9.278212
2022-11-29T02:08:05.065Z,9.278160
2022-11-29T02:09:05.342Z,9.278296
2022-11-29T02:10:05.473Z,9.278241
2022-11-29T02:11:05.269Z,9.278432
2022-11-29T02:12:05.054Z,9.278420
2022-11-29T02:13:05.352Z,9.278411
2022-11-29T02:14:05.104Z,9.278399
2022-11-29T02:15:05.181Z,9.278421
2022-11-29T02:16:05.293Z,9.278459
2022-11-29T02:17:05.226Z,9.278435
2022-11-29T02:18:05.111Z,9.278427
2022-11-29T02:19:05.010Z,9.278407
2022-11-29T02:20:06.025Z,9.278374
2022-11-29T02:21:04.820Z,9.278208
2022-11-29T02:22:05.151Z,9.278203
2022-11-29T02:23:05.084Z,9.278394
2022-11-29T02:24:04.772Z,9.278281
2022-11-29T02:25:04.986Z,9.278159
2022-11-29T02:26:04.835Z,9.278233
2022-11-29T02:27:05.004Z,9.278205
2022-11-29T02:28:05.117Z,9.278207
2022-11-29T02:29:05.116Z,9.278213
2022-11-29T02:30:04.858Z,9.278194
2022-11-29T02:31:05.109Z,9.278260
2022-11-29T02:32:04.690Z,9.278212
2022-11-29T02:33:04.917Z,9.278219
2022-11-29T02:34:04.611Z,9.278168
2022-11-29T02:35:04.926Z,9.278137
2022-11-29T02:36:04.635Z,9.278237
2022-11-29T02:37:11.305Z,9.278124
2022-11-29T02:38:06.677Z,9.278226
2022-11-29T02:39:04.999Z,9.278275
2022-11-29T02:40:04.787Z,9.278280
2022-11-29T02:41:04.767Z,9.278311
2022-11-29T02:42:04.732Z,9.278278
2022-11-29T02:43:04.443Z,9.278307
2022-11-29T02:44:04.417Z,9.278203
2022-11-29T02:45:04.874Z,9.278275
2022-11-29T02:46:04.435Z,9.278306
2022-11-29T02:47:04.704Z,9.278363
2022-11-29T02:48:04.637Z,9.278359
2022-11-29T02:49:04.641Z,9.278327
2022-11-29T02:50:04.782Z,9.278337
2022-11-29T02:51:04.759Z,9.278294
2022-11-29T02:52:04.602Z,9.278206
2022-11-29T02:53:04.417Z,9.278236
2022-11-29T02:54:04.448Z,9.278307
2022-11-29T02:55:04.383Z,9.278269
2022-11-29T02:56:04.497Z,9.278306
2022-11-29T02:57:04.293Z,9.278356
2022-11-29T02:58:04.568Z,9.278330
2022-11-29T02:59:04.161Z,9.278354
2022-11-29T03:00:04.147Z,9.278296
2022-11-29T03:01:04.527Z,9.278262
2022-11-29T03:02:04.201Z,9.278286
2022-11-29T03:03:04.169Z,9.278259
2022-11-29T03:04:04.534Z,9.278352
2022-11-29T03:05:04.319Z,9.278352
2022-11-29T03:06:04.220Z,9.278367
2022-11-29T03:07:04.363Z,9.278367
2022-11-29T03:08:04.005Z,9.278435
2022-11-29T03:09:03.996Z,9.278370
2022-11-29T03:10:04.285Z,9.278310
2022-11-29T03:11:04.261Z,9.278262
2022-11-29T03:12:04.121Z,9.278326
2022-11-29T03:13:03.931Z,9.278297
2022-11-29T03:14:04.088Z,9.278296
2022-11-29T03:15:04.221Z,9.278268
2022-11-29T03:16:04.223Z,9.278275
2022-11-29T03:17:04.373Z,9.278292
2022-11-29T03:18:03.857Z,9.278363
2022-11-29T03:19:03.828Z,9.278401
2022-11-29T03:20:03.810Z,9.278356
2022-11-29T03:21:04.043Z,9.278322
2022-11-29T03:22:03.930Z,9.278272
2022-11-29T03:23:04.247Z,9.278348
2022-11-29T03:24:03.978Z,9.278368
2022-11-29T03:25:04.071Z,9.278207
2022-11-29T03:26:03.822Z,9.278318
2022-11-29T03:27:03.970Z,9.278369
2022-11-29T03:28:03.931Z,9.278292
2022-11-29T03:29:03.945Z,9.278310
2022-11-29T03:30:03.706Z,9.278085
2022-11-29T03:31:03.967Z,9.278067
2022-11-29T03:32:03.624Z,9.278149
2022-11-29T03:33:03.689Z,9.278200
2022-11-29T03:34:03.868Z,9.278298
2022-11-29T03:35:03.711Z,9.278171
2022-11-29T03:36:03.530Z,9.278179
2022-11-29T03:37:03.723Z,9.278325
2022-11-29T03:38:03.788Z,9.278151
2022-11-29T03:39:03.848Z,9.278254
2022-11-29T03:40:03.446Z,9.278547
2022-11-29T03:41:03.603Z,9.278456
2022-11-29T03:42:03.898Z,9.278395
2022-11-29T03:43:03.586Z,9.278365
2022-11-29T03:44:03.629Z,9.278326
2022-11-29T03:45:03.378Z,9.278261
2022-11-29T03:46:03.683Z,9.278330
2022-11-29T03:47:03.968Z,9.278321
2022-11-29T03:48:03.577Z,9.278298
2022-11-29T03:49:03.530Z,9.278280
2022-11-29T03:50:03.436Z,9.278303
2022-11-29T03:51:03.510Z,9.278220
2022-11-29T03:52:04.381Z,9.278297
2022-11-29T03:53:03.405Z,9.278198
2022-11-29T03:54:03.326Z,9.278229
2022-11-29T03:55:03.304Z,9.278324
2022-11-29T03:56:03.600Z,9.278296
2022-11-29T03:57:03.549Z,9.278274
2022-11-29T03:58:03.485Z,9.278137
2022-11-29T03:59:03.646Z,9.278152
2022-11-29T04:00:03.096Z,9.278222
2022-11-29T04:01:03.089Z,9.278197
2022-11-29T04:02:03.102Z,9.278226
2022-11-29T04:03:03.125Z,9.278205
2022-11-29T04:04:03.159Z,9.278252
2022-11-29T04:05:03.335Z,9.278335
2022-11-29T04:06:03.451Z,9.278406
2022-11-29T04:07:03.298Z,9.278279
2022-11-29T04:08:03.384Z,9.278337
2022-11-29T04:09:03.228Z,9.278435
2022-11-29T04:10:03.249Z,9.278159
2022-11-29T04:11:02.906Z,9.278197
2022-11-29T04:12:02.923Z,9.278116
2022-11-29T04:13:02.870Z,9.278297
2022-11-29T04:14:02.866Z,9.278378
2022-11-29T04:15:02.857Z,9.278264
2022-11-29T04:16:03.004Z,9.278363
2022-11-29T04:17:02.833Z,9.278391
2022-11-29T04:18:02.805Z,9.278286
2022-11-29T04:19:02.778Z,9.278310
2022-11-29T04:20:02.759Z,9.278231
2022-11-29T04:21:02.731Z,9.278185
2022-11-29T04:22:02.761Z,9.278285
2022-11-29T04:23:02.720Z,9.278286
2022-11-29T04:24:02.693Z,9.278316
2022-11-29T04:25:02.686Z,9.278281
2022-11-29T04:26:02.645Z,9.278218
2022-11-29T04:27:02.690Z,9.278440
2022-11-29T04:28:02.692Z,9.278475
2022-11-29T04:29:02.618Z,9.278391
2022-11-29T04:30:02.585Z,9.278411
2022-11-29T04:31:02.619Z,9.278368
2022-11-29T04:32:02.583Z,9.278377
2022-11-29T04:33:02.533Z,9.278330
2022-11-29T04:34:02.519Z,9.278370
2022-11-29T04:35:02.511Z,9.278374
2022-11-29T04:36:02.472Z,9.278345
2022-11-29T04:37:02.511Z,9.278341
2022-11-29T04:38:02.492Z,9.278328
2022-11-29T04:39:02.468Z,9.278360
2022-11-29T04:40:02.437Z,9.278390
2022-11-29T04:41:02.395Z,9.278338
2022-11-29T04:42:02.538Z,9.278341
2022-11-29T04:43:02.364Z,9.278330
2022-11-29T04:44:02.354Z,9.278313
2022-11-29T04:45:02.333Z,9.278255
2022-11-29T04:46:02.395Z,9.278374
2022-11-29T04:47:02.322Z,9.278251
2022-11-29T04:48:02.281Z,9.278411
2022-11-29T04:49:02.249Z,9.278267
2022-11-29T04:50:02.239Z,9.278307
2022-11-29T04:51:02.233Z,9.278277
2022-11-29T04:52:02.227Z,9.278226
2022-11-29T04:53:02.179Z,9.278401
2022-11-29T04:54:02.161Z,9.278220
2022-11-29T04:55:02.176Z,9.278335
2022-11-29T04:56:02.136Z,9.278331
2022-11-29T04:57:02.152Z,9.278275
2022-11-29T04:58:02.115Z,9.278260
2022-11-29T04:59:02.074Z,9.278312
2022-11-29T05:00:02.060Z,9.278212
2022-11-29T05:01:02.049Z,9.278280
2022-11-29T05:02:02.109Z,9.278264
2022-11-29T05:03:02.091Z,9.278268
2022-11-29T05:04:01.992Z,9.278223
2022-11-29T05:05:01.986Z,9.278351
2022-11-29T05:06:01.967Z,9.278391
2022-11-29T05:07:01.940Z,9.278283
2022-11-29T05:08:01.969Z,9.278220
2022-11-29T05:09:01.908Z,9.278262
2022-11-29T05:10:01.892Z,9.278236
2022-11-29T05:11:01.870Z,9.278177
2022-11-29T05:12:01.846Z,9.278295
2022-11-29T05:13:01.878Z,9.278136
2022-11-29T05:14:01.821Z,9.278264
2022-11-29T05:15:01.791Z,9.278316
2022-11-29T05:16:01.825Z,9.278132
2022-11-29T05:17:01.787Z,9.278231
2022-11-29T05:18:01.773Z,9.278091
2022-11-29T05:19:01.724Z,9.278144
2022-11-29T05:20:01.717Z,9.278419
2022-11-29T05:21:01.698Z,9.278176
2022-11-29T05:22:01.683Z,9.278474
2022-11-29T05:23:01.699Z,9.278147
2022-11-29T05:24:01.659Z,9.278016
2022-11-29T05:25:01.622Z,9.278115
2022-11-29T05:26:01.615Z,9.278297
2022-11-29T05:27:01.592Z,9.278366
2022-11-29T05:28:04.498Z,9.278342
2022-11-29T05:29:03.568Z,9.278250
2022-11-29T05:30:01.563Z,9.278200
2022-11-29T05:31:01.580Z,9.278304
2022-11-29T05:32:01.511Z,9.278199
2022-11-29T05:33:01.561Z,9.278342
2022-11-29T05:34:01.476Z,9.278285
2022-11-29T05:35:01.464Z,9.278281
2022-11-29T05:36:01.437Z,9.278317
2022-11-29T05:37:01.430Z,9.278328
2022-11-29T05:38:01.450Z,9.278281
2022-11-29T05:39:01.399Z,9.278319
2022-11-29T05:40:01.369Z,9.278259
2022-11-29T05:41:01.375Z,9.278238
2022-11-29T05:42:01.333Z,9.278153
2022-11-29T05:43:01.342Z,9.278332
2022-11-29T05:44:01.295Z,9.278341
2022-11-29T05:45:01.286Z,9.278341
2022-11-29T05:46:01.376Z,9.278424
2022-11-29T05:47:01.255Z,9.278304
2022-11-29T05:48:01.329Z,9.278281
2022-11-29T05:49:01.224Z,9.278256
2022-11-29T05:50:01.209Z,9.278219
2022-11-29T05:51:01.179Z,9.278174
2022-11-29T05:52:01.174Z,9.278420
2022-11-29T05:53:01.187Z,9.278432
2022-11-29T05:54:01.150Z,9.278184
2022-11-29T05:55:01.105Z,9.278077
2022-11-29T05:56:01.102Z,9.277983
2022-11-29T05:57:01.079Z,9.278029
2022-11-29T05:58:01.092Z,9.278055
2022-11-29T05:59:01.046Z,9.277980
2022-11-29T06:00:01.030Z,9.278237
2022-11-29T06:01:00.998Z,9.278311
2022-11-29T06:02:01.025Z,9.278312
2022-11-29T06:03:01.060Z,9.278146
2022-11-29T06:04:00.964Z,9.278300
2022-11-29T06:05:00.940Z,9.278465
2022-11-29T06:06:00.943Z,9.278421
2022-11-29T06:07:00.905Z,9.278721
2022-11-29T06:08:00.963Z,9.278531
2022-11-29T06:09:00.869Z,9.278453
2022-11-29T06:10:01.979Z,9.278278
2022-11-29T06:11:01.849Z,9.278029
2022-11-29T06:12:00.817Z,9.278055
2022-11-29T06:13:00.837Z,9.278394
2022-11-29T06:14:00.781Z,9.278311
2022-11-29T06:15:00.774Z,9.278459
2022-11-29T06:16:00.782Z,9.278347
2022-11-29T06:17:00.746Z,9.278117
2022-11-29T06:18:00.754Z,9.278043
2022-11-29T06:19:00.700Z,9.278372
2022-11-29T06:20:00.680Z,9.278442
2022-11-29T06:21:00.671Z,9.278475
2022-11-29T06:22:00.641Z,9.278374
2022-11-29T06:23:00.666Z,9.278505
2022-11-29T06:24:00.619Z,9.278238
2022-11-29T06:25:00.595Z,9.278204
2022-11-29T06:26:03.884Z,9.278171
2022-11-29T06:27:01.572Z,9.278234
2022-11-29T06:28:00.565Z,9.278457
2022-11-29T06:29:00.515Z,9.278107
2022-11-29T06:30:01.500Z,9.278234
2022-11-29T06:31:00.519Z,9.277996
2022-11-29T06:32:00.485Z,9.278063
2022-11-29T06:33:00.491Z,9.277898
2022-11-29T06:34:00.448Z,9.278163
2022-11-29T06:35:00.423Z,9.278292
2022-11-29T06:36:00.415Z,9.278346
2022-11-29T06:37:00.414Z,9.278163
2022-11-29T06:38:00.425Z,9.278270
2022-11-29T06:39:00.346Z,9.278336
2022-11-29T06:40:00.339Z,9.278603
2022-11-29T06:41:02.376Z,9.278325
2022-11-29T06:42:01.299Z,9.278390
2022-11-29T06:43:00.320Z,9.278346
2022-11-29T06:44:00.259Z,9.278283
2022-11-29T06:45:00.242Z,9.278394
2022-11-29T06:46:00.233Z,9.277716
2022-11-29T06:47:00.262Z,9.277900
2022-11-29T06:48:00.243Z,9.278470
2022-11-29T06:49:02.317Z,9.278454
2022-11-29T06:50:01.166Z,9.278337
2022-11-29T06:51:00.148Z,9.278355
2022-11-29T06:52:00.131Z,9.278246
2022-11-29T06:53:00.147Z,9.278294
2022-11-29T06:54:00.097Z,9.278412
2022-11-29T06:55:00.088Z,9.278419
2022-11-29T06:56:00.066Z,9.278423
2022-11-29T06:57:00.036Z,9.278377
2022-11-29T06:58:00.051Z,9.278255
2022-11-29T06:59:00.014Z,9.278577
2022-11-29T06:59:59.994Z,9.278617
2022-11-29T07:01:00.021Z,9.278564
2022-11-29T07:02:00.006Z,9.278348
2022-11-29T07:02:59.978Z,9.278106
2022-11-29T07:03:59.944Z,9.278316
2022-11-29T07:04:59.912Z,9.278515
2022-11-29T07:05:59.885Z,9.278093
2022-11-29T07:07:00.875Z,9.278058
2022-11-29T07:07:59.938Z,9.278238
2022-11-29T07:08:59.849Z,9.278571
2022-11-29T07:09:59.822Z,9.278342
2022-11-29T07:10:59.806Z,9.278100
2022-11-29T07:11:59.786Z,9.278015
2022-11-29T07:12:59.800Z,9.277984
2022-11-29T07:13:59.747Z,9.278036
2022-11-29T07:14:59.733Z,9.278275
2022-11-29T07:15:59.783Z,9.278323
2022-11-29T07:16:59.693Z,9.278235
2022-11-29T07:17:59.716Z,9.278312
2022-11-29T07:18:59.677Z,9.278102
2022-11-29T07:19:59.654Z,9.278127
2022-11-29T07:20:59.633Z,9.278213
2022-11-29T07:21:59.610Z,9.278183
2022-11-29T07:22:59.654Z,9.278241
2022-11-29T07:23:59.581Z,9.278222
2022-11-29T07:24:59.574Z,9.278184
2022-11-29T07:25:59.545Z,9.278318
2022-11-29T07:26:59.888Z,9.278320
2022-11-29T07:28:00.558Z,9.278255
2022-11-29T07:28:59.491Z,9.278439
2022-11-29T07:29:59.470Z,9.278591
2022-11-29T07:30:59.461Z,9.278658
2022-11-29T07:31:59.446Z,9.278425
2022-11-29T07:33:00.617Z,9.278403
2022-11-29T07:34:00.456Z,9.278297
2022-11-29T07:34:59.394Z,9.278511
2022-11-29T07:35:59.385Z,9.278316
2022-11-29T07:36:59.352Z,9.278109
2022-11-29T07:37:59.343Z,9.278193
2022-11-29T07:38:59.362Z,9.278293
2022-11-29T07:39:59.313Z,9.278316
2022-11-29T07:40:59.282Z,9.278291
2022-11-29T07:41:59.277Z,9.278431
2022-11-29T07:42:59.252Z,9.278324
2022-11-29T07:43:59.277Z,9.278218
2022-11-29T07:44:59.211Z,9.278209
2022-11-29T07:45:59.214Z,9.278201
2022-11-29T07:46:59.230Z,9.278290
2022-11-29T07:47:59.169Z,9.278420
2022-11-29T07:48:59.182Z,9.278437
2022-11-29T07:49:59.136Z,9.278311
2022-11-29T07:50:59.171Z,9.278423
2022-11-29T07:51:59.097Z,9.278303
2022-11-29T07:52:59.094Z,9.278139
2022-11-29T07:53:59.113Z,9.278316
2022-11-29T07:54:59.052Z,9.278256
2022-11-29T07:55:59.033Z,9.278368
2022-11-29T07:56:59.019Z,9.278316
2022-11-29T07:57:58.987Z,9.278520
2022-11-29T07:58:59.056Z,9.278399
2022-11-29T07:59:58.959Z,9.278386
2022-11-29T08:00:58.991Z,9.278412
2022-11-29T08:01:58.981Z,9.278382
2022-11-29T08:02:58.915Z,9.278452
2022-11-29T08:03:58.926Z,9.278352
2022-11-29T08:04:58.884Z,9.278494
2022-11-29T08:05:58.855Z,9.278277
2022-11-29T08:06:58.838Z,9.278344
2022-11-29T08:07:58.867Z,9.278327
2022-11-29T08:08:58.844Z,9.278229
2022-11-29T08:09:58.801Z,9.278277
2022-11-29T08:10:58.766Z,9.278196
2022-11-29T08:11:58.751Z,9.278315
2022-11-29T08:12:58.737Z,9.278264
2022-11-29T08:13:58.747Z,9.278342
2022-11-29T08:14:58.693Z,9.278374
2022-11-29T08:15:58.748Z,9.278276
2022-11-29T08:16:58.669Z,9.278318
2022-11-29T08:17:58.661Z,9.278258
2022-11-29T08:18:58.667Z,9.278375
2022-11-29T08:20:03.724Z,9.278388
2022-11-29T08:21:00.620Z,9.278439
2022-11-29T08:21:58.586Z,9.278300
2022-11-29T08:22:58.578Z,9.278282
2022-11-29T08:23:58.582Z,9.278112
2022-11-29T08:24:58.520Z,9.278054
2022-11-29T08:25:58.520Z,9.278145
2022-11-29T08:26:58.494Z,9.278355
2022-11-29T08:27:58.476Z,9.278428
2022-11-29T08:28:58.490Z,9.278374
2022-11-29T08:29:58.438Z,9.278215
2022-11-29T08:30:58.423Z,9.277914
2022-11-29T08:31:58.475Z,9.278272
2022-11-29T08:32:58.396Z,9.278202
2022-11-29T08:33:58.400Z,9.278412
2022-11-29T08:34:58.360Z,9.278647
2022-11-29T08:35:58.338Z,9.278512
2022-11-29T08:36:58.320Z,9.278472
2022-11-29T08:37:58.323Z,9.278353
2022-11-29T08:39:05.965Z,9.278488
2022-11-29T08:40:00.262Z,9.278392
2022-11-29T08:40:58.251Z,9.278274
2022-11-29T08:41:58.238Z,9.278425
2022-11-29T08:42:58.219Z,9.278407
2022-11-29T08:43:58.224Z,9.278376
2022-11-29T08:44:58.182Z,9.278372
2022-11-29T08:45:58.200Z,9.278267
2022-11-29T08:46:58.144Z,9.278319
2022-11-29T08:47:58.137Z,9.278358
2022-11-29T08:48:58.140Z,9.278253
2022-11-29T08:49:58.102Z,9.278238
2022-11-29T08:50:58.081Z,9.278304
2022-11-29T08:51:58.068Z,9.278428
2022-11-29T08:52:58.045Z,9.278152
2022-11-29T08:53:58.066Z,9.278218
2022-11-29T08:55:03.014Z,9.278110
2022-11-29T08:55:59.997Z,9.278014
2022-11-29T08:57:37.928Z,9.278035
2022-11-29T08:57:59.951Z,9.278455
2022-11-29T08:58:58.989Z,9.278227
2022-11-29T08:59:57.928Z,9.278345
2022-11-29T09:00:58.010Z,9.278248
2022-11-29T09:01:57.930Z,9.278289
2022-11-29T09:02:57.887Z,9.278161
2022-11-29T09:03:57.992Z,9.278213
2022-11-29T09:04:57.851Z,9.278229
2022-11-29T09:05:57.829Z,9.278219
2022-11-29T09:06:57.814Z,9.278195
2022-11-29T09:07:57.829Z,9.278367
2022-11-29T09:08:57.814Z,9.278321
2022-11-29T09:09:57.753Z,9.278299
2022-11-29T09:10:57.737Z,9.278481
2022-11-29T09:11:57.731Z,9.278315
2022-11-29T09:12:57.709Z,9.278354
2022-11-29T09:13:57.721Z,9.278366
2022-11-29T09:14:57.671Z,9.278299
2022-11-29T09:15:57.658Z,9.278402
2022-11-29T09:16:57.727Z,9.278349
2022-11-29T09:17:57.632Z,9.278391
2022-11-29T09:18:57.644Z,9.278501
2022-11-29T09:19:57.587Z,9.278417
2022-11-29T09:20:57.574Z,9.278414
2022-11-29T09:21:57.552Z,9.278370
2022-11-29T09:22:57.544Z,9.278420
2022-11-29T09:23:57.556Z,9.278363
2022-11-29T09:24:57.515Z,9.278431
2022-11-29T09:25:57.494Z,9.278408
2022-11-29T09:26:57.480Z,9.278388
2022-11-29T09:27:57.451Z,9.278381
2022-11-29T09:28:57.463Z,9.278374
2022-11-29T09:29:57.420Z,9.278297
2022-11-29T09:30:57.404Z,9.278407
2022-11-29T09:31:57.444Z,9.278389
2022-11-29T09:32:57.370Z,9.278503
2022-11-29T09:33:57.379Z,9.278519
2022-11-29T09:34:57.337Z,9.278480
2022-11-29T09:35:57.319Z,9.278489
2022-11-29T09:36:57.306Z,9.278388
2022-11-29T09:37:57.300Z,9.278373
2022-11-29T09:38:57.314Z,9.278493
2022-11-29T09:39:57.262Z,9.278439
2022-11-29T09:40:57.251Z,9.278348
2022-11-29T09:41:57.225Z,9.278170
2022-11-29T09:42:57.227Z,9.278069
2022-11-29T09:43:57.243Z,9.278279
2022-11-29T09:44:57.176Z,9.278416
2022-11-29T09:45:57.214Z,9.278387
2022-11-29T09:46:58.858Z,9.278449
2022-11-29T09:47:58.120Z,9.278384
2022-11-29T09:48:57.145Z,9.278407
2022-11-29T09:49:57.078Z,9.278421
2022-11-29T09:50:57.065Z,9.278490
2022-11-29T09:51:57.043Z,9.278423
2022-11-29T09:52:57.026Z,9.278357
2022-11-29T09:53:57.010Z,9.278321
2022-11-29T09:54:57.035Z,9.278404
2022-11-29T09:55:56.987Z,9.278485
2022-11-29T09:56:56.962Z,9.278493
2022-11-29T09:57:56.942Z,9.278431
2022-11-29T09:58:56.934Z,9.278379
2022-11-29T09:59:56.951Z,9.278381
2022-11-29T10:00:56.951Z,9.278344
2022-11-29T10:01:56.905Z,9.278390
2022-11-29T10:02:56.866Z,9.278388
2022-11-29T10:03:56.842Z,9.278283
2022-11-29T10:04:56.889Z,9.278354
2022-11-29T10:05:56.805Z,9.278378
2022-11-29T10:06:56.793Z,9.278328
2022-11-29T10:07:56.833Z,9.278458
2022-11-29T10:08:56.769Z,9.278522
2022-11-29T10:09:56.774Z,9.278475
2022-11-29T10:10:56.736Z,9.278627
2022-11-29T10:11:56.721Z,9.278502
2022-11-29T10:12:56.692Z,9.278562
2022-11-29T10:13:56.689Z,9.278484
2022-11-29T10:14:56.708Z,9.278152
2022-11-29T10:15:56.653Z,9.278188
2022-11-29T10:16:56.634Z,9.278226
2022-11-29T10:17:56.603Z,9.278356
2022-11-29T10:18:56.580Z,9.278347
2022-11-29T10:19:56.598Z,9.278267
2022-11-29T10:20:56.555Z,9.278280
2022-11-29T10:21:56.540Z,9.278347
2022-11-29T10:22:56.536Z,9.278350
2022-11-29T10:23:56.501Z,9.278402
2022-11-29T10:24:56.518Z,9.278272
2022-11-29T10:25:56.474Z,9.278185
2022-11-29T10:26:56.463Z,9.278312
2022-11-29T10:27:56.431Z,9.278442
2022-11-29T10:28:56.429Z,9.278402
2022-11-29T10:29:57.445Z,9.278292
2022-11-29T10:30:56.478Z,9.278357
2022-11-29T10:31:57.372Z,9.278390
2022-11-29T10:32:56.365Z,9.278338
2022-11-29T10:33:56.336Z,9.278349
2022-11-29T10:34:56.364Z,9.278297
2022-11-29T10:35:56.303Z,9.278319
2022-11-29T10:36:56.281Z,9.278437
2022-11-29T10:38:29.269Z,9.278566
2022-11-29T10:38:58.262Z,9.278552
2022-11-29T10:39:56.260Z,9.278205
2022-11-29T10:40:56.220Z,9.278363
2022-11-29T10:41:56.208Z,9.278490
2022-11-29T10:42:56.184Z,9.278567
2022-11-29T10:43:56.173Z,9.278330
2022-11-29T10:44:56.175Z,9.278431
2022-11-29T10:45:57.167Z,9.278601
2022-11-29T10:46:56.111Z,9.278464
2022-11-29T10:47:56.097Z,9.278404
2022-11-29T10:48:57.078Z,9.278412
2022-11-29T10:49:56.100Z,9.278490
2022-11-29T10:50:56.045Z,9.278481
2022-11-29T10:51:56.030Z,9.278516
2022-11-29T10:53:00.065Z,9.278399
2022-11-29T10:53:57.002Z,9.278134
2022-11-29T10:54:56.008Z,9.278056
2022-11-29T10:55:55.963Z,9.278254
2022-11-29T10:56:55.954Z,9.278314
2022-11-29T10:57:55.925Z,9.278382
2022-11-29T10:58:55.917Z,9.278379
2022-11-29T10:59:55.932Z,9.278416
2022-11-29T11:00:55.923Z,9.278439
2022-11-29T11:01:55.859Z,9.278423
2022-11-29T11:02:55.843Z,9.278463
2022-11-29T11:03:55.828Z,9.278435
2022-11-29T11:04:55.852Z,9.278374
2022-11-29T11:05:55.851Z,9.278207
2022-11-29T11:06:55.776Z,9.278224
2022-11-29T11:07:55.797Z,9.278423
2022-11-29T11:08:55.742Z,9.278322
2022-11-29T11:09:55.758Z,9.278273
2022-11-29T11:11:01.222Z,9.278332
2022-11-29T11:11:57.689Z,9.278052
2022-11-29T11:12:55.670Z,9.278188
2022-11-29T11:13:55.664Z,9.278457
2022-11-29T11:14:55.668Z,9.278353
2022-11-29T11:15:55.621Z,9.278211
2022-11-29T11:16:55.649Z,9.278222
2022-11-29T11:17:55.582Z,9.278301
2022-11-29T11:18:55.565Z,9.278285
2022-11-29T11:19:55.596Z,9.278178
2022-11-29T11:20:55.533Z,9.278283
2022-11-29T11:21:55.515Z,9.278354
2022-11-29T11:22:55.516Z,9.278213
2022-11-29T11:23:55.479Z,9.278121
2022-11-29T11:24:55.493Z,9.278150
2022-11-29T11:25:55.444Z,9.278051
2022-11-29T11:26:55.434Z,9.278171
2022-11-29T11:27:55.409Z,9.278007
2022-11-29T11:28:55.404Z,9.278161
2022-11-29T11:29:55.411Z,9.278003
2022-11-29T11:30:55.424Z,9.278094
2022-11-29T11:31:55.342Z,9.278263
2022-11-29T11:32:55.338Z,9.278393
2022-11-29T11:33:55.307Z,9.278413
2022-11-29T11:34:55.341Z,9.278418
2022-11-29T11:35:55.303Z,9.278551
2022-11-29T11:36:55.258Z,9.278608
2022-11-29T11:37:55.263Z,9.278752
2022-11-29T11:38:55.248Z,9.278520
2022-11-29T11:39:55.253Z,9.278220
2022-11-29T11:40:58.130Z,9.278529
2022-11-29T11:41:56.170Z,9.278515
2022-11-29T11:42:55.156Z,9.278736
2022-11-29T11:43:55.192Z,9.278081